Time;durP1;ratioP1;P1;durP2;ratioP2;P2;SDS_P1;SDS_P2;PMS_P1;PMS_P2;Temp;Humidity;BMP_temperature;BMP_pressure;BME280_temperature;BME280_humidity;BME280_pressure;Samples;Min_cycle;Max_cycle;Signal;HPM_P1;HPM_P2
2022/04/21 00:01:13;;;;;;;11.70;7.37;;;;;;;2.79;100.00;98360.61;1781467;80;20995;-75
2022/04/21 00:03:41;;;;;;;12.17;7.47;;;;;;;2.79;100.00;98361.95;1815653;79;21019;-76
2022/04/21 00:06:10;;;;;;;12.97;7.23;;;;;;;2.78;100.00;98366.46;1814990;79;21058;-75
2022/04/21 00:08:37;;;;;;;12.27;7.10;;;;;;;2.81;100.00;98368.78;1815474;79;21006;-77
2022/04/21 00:11:06;;;;;;;11.53;7.23;;;;;;;2.84;100.00;98372.47;1815054;79;21014;-76
2022/04/21 00:13:36;;;;;;;11.30;7.17;;;;;;;2.87;100.00;98367.32;1815809;79;21041;-76
2022/04/21 00:16:05;;;;;;;13.07;7.80;;;;;;;2.92;100.00;98371.67;1815183;79;21574;-76
2022/04/21 00:18:34;;;;;;;14.30;7.63;;;;;;;2.94;100.00;98360.80;1781846;80;21035;-77
2022/04/21 00:21:02;;;;;;;13.20;6.97;;;;;;;2.95;100.00;98358.48;1781764;80;21081;-77
2022/04/21 00:23:31;;;;;;;13.27;7.43;;;;;;;2.98;100.00;98358.99;1781947;80;21011;-76
2022/04/21 00:26:00;;;;;;;12.17;7.63;;;;;;;3.00;100.00;98366.34;1747780;80;21089;-76
2022/04/21 00:28:29;;;;;;;11.00;7.40;;;;;;;3.01;100.00;98365.83;1756768;81;21066;-77
2022/04/21 00:30:57;;;;;;;12.63;7.87;;;;;;;3.02;100.00;98363.50;1774167;81;21055;-76
2022/04/21 00:33:25;;;;;;;16.73;7.93;;;;;;;3.02;100.00;98372.34;1769212;81;21028;-76
2022/04/21 00:35:53;;;;;;;15.23;8.07;;;;;;;3.04;100.00;98368.17;1740322;82;21035;-78
2022/04/21 00:38:22;;;;;;;13.67;7.80;;;;;;;3.03;100.00;98363.34;1740912;82;21018;-77
2022/04/21 00:40:50;;;;;;;13.90;7.87;;;;;;;3.05;100.00;98400.57;1717765;82;21531;-76
2022/04/21 00:43:21;;;;;;;15.77;8.37;;;;;;;3.04;100.00;98399.71;1740675;82;21054;-74
2022/04/21 00:45:49;;;;;;;13.33;7.93;;;;;;;3.06;100.00;98400.06;1740504;82;21488;-76
2022/04/21 00:48:18;;;;;;;16.07;9.23;;;;;;;3.08;100.00;98394.05;1740338;82;21006;-78
2022/04/21 00:50:45;;;;;;;15.17;8.93;;;;;;;3.06;100.00;98387.53;1740728;82;21046;-77
2022/04/21 00:53:14;;;;;;;18.03;9.70;;;;;;;3.04;100.00;98385.53;1740286;82;21065;-74
2022/04/21 00:55:41;;;;;;;17.13;9.90;;;;;;;3.02;100.00;98382.20;1740151;82;21031;-76
2022/04/21 00:58:08;;;;;;;18.63;11.27;;;;;;;2.98;100.00;98378.19;1740420;82;20991;-77
2022/04/21 01:00:37;;;;;;;18.27;10.67;;;;;;;2.94;100.00;98373.67;1740288;82;21034;-76
2022/04/21 01:03:06;;;;;;;19.60;11.50;;;;;;;2.93;100.00;98361.31;1740181;82;21034;-75
2022/04/21 01:05:35;;;;;;;19.90;12.13;;;;;;;2.95;100.00;98362.48;1740537;82;21054;-75
2022/04/21 01:08:07;;;;;;;19.87;12.00;;;;;;;2.93;100.00;98360.48;1740617;82;21054;-75
2022/04/21 01:10:38;;;;;;;21.80;11.83;;;;;;;2.93;100.00;98352.48;1740220;82;21304;-76
2022/04/21 01:13:08;;;;;;;20.13;11.73;;;;;;;2.95;100.00;98347.30;1748270;81;21083;-76
2022/04/21 01:15:37;;;;;;;20.87;11.77;;;;;;;2.95;100.00;98340.63;1747800;82;21020;-76
2022/04/21 01:18:05;;;;;;;18.20;11.07;;;;;;;2.93;100.00;98343.13;1747776;82;21064;-75
2022/04/21 01:20:34;;;;;;;19.30;11.37;;;;;;;2.95;100.00;98333.95;1747461;82;21009;-75
2022/04/21 01:23:03;;;;;;;20.80;11.87;;;;;;;2.98;100.00;98328.80;1747409;82;21032;-75
2022/04/21 01:25:41;;;;;;;17.53;10.40;;;;;;;3.01;100.00;98330.64;1750204;81;21106;-75
2022/04/21 01:28:11;;;;;;;17.53;10.07;;;;;;;3.01;100.00;98321.77;1626154;88;21126;-76
2022/04/21 01:30:38;;;;;;;18.17;11.20;;;;;;;3.04;100.00;98314.77;1609671;89;21615;-77
2022/04/21 01:33:08;;;;;;;19.83;11.13;;;;;;;3.06;100.00;98306.59;1609625;87;21071;-77
2022/04/21 01:35:41;;;;;;;16.70;9.80;;;;;;;3.03;100.00;98304.59;1635757;86;21111;-76
2022/04/21 01:41:10;;;;;;;17.07;10.10;;;;;;;3.04;100.00;98291.56;1636009;87;21615;-73
2022/04/21 01:43:41;;;;;;;18.10;9.83;;;;;;;3.06;100.00;98294.06;1635742;88;21054;-76
2022/04/21 01:46:09;;;;;;;16.77;9.43;;;;;;;3.05;100.00;98303.09;1636187;88;21043;-76
2022/04/21 01:48:37;;;;;;;17.27;9.87;;;;;;;3.07;100.00;98302.94;1635914;88;21345;-76
2022/04/21 01:51:04;;;;;;;17.50;9.77;;;;;;;3.09;100.00;98296.92;1635951;86;21400;-76
2022/04/21 01:53:31;;;;;;;19.13;10.20;;;;;;;3.10;100.00;98294.57;1636134;88;21138;-75
2022/04/21 01:55:59;;;;;;;16.00;9.47;;;;;;;3.13;100.00;98290.24;1636047;88;21047;-76
2022/04/21 01:58:29;;;;;;;17.20;9.87;;;;;;;3.16;100.00;98290.74;1636077;88;21106;-77
2022/04/21 02:00:57;;;;;;;16.30;9.63;;;;;;;3.20;100.00;98289.40;1614363;88;21087;-75
2022/04/21 02:03:24;;;;;;;13.13;8.40;;;;;;;3.22;100.00;98279.41;1636222;88;21007;-76
2022/04/21 02:05:53;;;;;;;16.87;8.90;;;;;;;3.26;100.00;98280.39;1635896;88;21091;-77
2022/04/21 02:08:20;;;;;;;16.13;9.37;;;;;;;3.30;100.00;98275.89;1635882;88;21540;-77
2022/04/21 02:10:49;;;;;;;14.37;8.50;;;;;;;3.31;100.00;98274.90;1664369;86;21138;-76
2022/04/21 02:13:16;;;;;;;14.47;8.57;;;;;;;3.30;100.00;98273.73;1668136;86;21066;-73
2022/04/21 02:15:46;;;;;;;14.60;8.47;;;;;;;3.30;100.00;98271.05;1667667;86;21599;-76
2022/04/21 02:18:14;;;;;;;13.13;8.17;;;;;;;3.31;100.00;98271.37;1668103;86;21050;-75
2022/04/21 02:20:41;;;;;;;13.40;8.30;;;;;;;3.30;100.00;98266.54;1668366;86;21015;-74
2022/04/21 02:23:09;;;;;;;14.87;8.27;;;;;;;3.33;100.00;98260.87;1668184;86;21054;-76
2022/04/21 02:25:36;;;;;;;13.63;8.20;;;;;;;3.35;100.00;98256.70;1753222;80;21062;-75
2022/04/21 02:28:04;;;;;;;12.80;8.03;;;;;;;3.38;100.00;98257.19;1740604;82;21050;-76
2022/04/21 02:30:32;;;;;;;15.50;8.20;;;;;;;3.41;100.00;98254.67;1740408;82;21034;-75
2022/04/21 02:33:00;;;;;;;14.30;8.13;;;;;;;3.45;100.00;98256.50;1740211;82;21034;-77
2022/04/21 02:35:27;;;;;;;13.63;7.97;;;;;;;3.48;100.00;98255.66;1740265;82;21097;-76
2022/04/21 02:37:56;;;;;;;18.70;8.70;;;;;;;3.52;100.00;98258.31;1740102;81;20999;-76
2022/04/21 02:40:24;;;;;;;15.93;8.37;;;;;;;3.55;100.00;98249.97;1740479;81;21093;-76
2022/04/21 02:42:52;;;;;;;14.83;8.80;;;;;;;3.55;100.00;98245.95;1717262;82;21034;-76
2022/04/21 02:45:20;;;;;;;15.00;8.23;;;;;;;3.56;100.00;98242.30;1740516;82;21054;-75
2022/04/21 02:47:48;;;;;;;15.73;9.40;;;;;;;3.57;100.00;98240.45;1740106;82;21042;-74
2022/04/21 02:50:17;;;;;;;15.67;8.57;;;;;;;3.58;100.00;98240.28;1740192;82;21014;-76
2022/04/21 02:52:45;;;;;;;17.00;9.17;;;;;;;3.61;100.00;98231.08;1740132;82;21030;-75
2022/04/21 02:57:59;;;;;;;15.97;9.93;;;;;;;3.63;100.00;98233.09;1740249;82;21063;-75
2022/04/21 03:00:29;;;;;;;18.67;10.10;;;;;;;3.61;100.00;98227.92;1740652;82;21058;-76
2022/04/21 03:02:56;;;;;;;17.23;9.40;;;;;;;3.60;100.00;98234.77;1740587;82;20967;-75
2022/04/21 03:05:23;;;;;;;15.57;8.93;;;;;;;3.61;100.00;98237.27;1740690;82;20990;-74
2022/04/21 03:07:51;;;;;;;17.83;9.50;;;;;;;3.59;100.00;98243.30;1740435;82;21042;-74
2022/04/21 03:10:20;;;;;;;16.40;9.70;;;;;;;3.55;100.00;98242.46;1740714;82;21061;-76
2022/04/21 03:12:52;;;;;;;20.43;10.87;;;;;;;3.53;100.00;98243.97;1740635;81;21018;-77
2022/04/21 03:15:20;;;;;;;17.23;9.77;;;;;;;3.54;100.00;98248.31;1740736;82;21543;-76
2022/04/21 03:17:48;;;;;;;17.93;9.93;;;;;;;3.57;100.00;98251.14;1740824;82;21520;-78
2022/04/21 03:25:49;;;;;;;17.97;10.30;;;;;;;3.63;100.00;98226.90;1761147;79;21570;-75
2022/04/21 03:28:16;;;;;;;18.10;10.53;;;;;;;3.66;100.00;98229.23;1789317;80;21011;-76
2022/04/21 03:30:43;;;;;;;18.97;10.30;;;;;;;3.68;100.00;98226.70;1794187;80;20986;-76
2022/04/21 03:33:10;;;;;;;19.67;10.87;;;;;;;3.68;100.00;98232.56;1790001;80;21033;-77
2022/04/21 03:35:38;;;;;;;16.43;10.00;;;;;;;3.61;100.00;98229.26;1789694;80;21519;-77
2022/04/21 03:38:05;;;;;;;20.27;10.83;;;;;;;3.60;100.00;98244.95;1790080;80;20998;-76
2022/04/21 03:40:33;;;;;;;16.80;10.53;;;;;;;3.60;100.00;98241.45;1789515;80;21050;-76
2022/04/21 03:43:00;;;;;;;19.33;10.97;;;;;;;3.61;100.00;98248.45;1790105;80;21527;-76
2022/04/21 03:45:27;;;;;;;19.17;11.30;;;;;;;3.61;100.00;98253.80;1789825;80;21018;-76
2022/04/21 03:47:54;;;;;;;21.33;11.77;;;;;;;3.62;100.00;98246.12;1789900;80;21070;-75
2022/04/21 03:50:21;;;;;;;21.20;11.60;;;;;;;3.63;100.00;98245.61;1782854;80;21022;-74
2022/04/21 03:52:49;;;;;;;21.20;11.27;;;;;;;3.67;100.00;98249.63;1789925;80;20982;-76
2022/04/21 03:55:17;;;;;;;20.63;11.03;;;;;;;3.69;100.00;98245.77;1789734;80;21574;-75
2022/04/21 03:57:46;;;;;;;20.20;10.30;;;;;;;3.69;100.00;98240.42;1789968;80;21015;-76
2022/04/21 04:00:15;;;;;;;18.73;9.90;;;;;;;3.70;100.00;98247.92;1789943;80;21030;-75
2022/04/21 04:02:42;;;;;;;18.13;9.30;;;;;;;3.75;100.00;98246.44;1789914;80;21030;-73
2022/04/21 04:05:10;;;;;;;25.17;15.60;;;;;;;3.78;100.00;98248.74;1790015;80;21030;-76
2022/04/21 04:13:14;;;;;;;17.27;9.80;;;;;;;3.85;100.00;98237.38;1789603;80;21503;-71
2022/04/21 04:15:48;;;;;;;19.10;9.77;;;;;;;3.88;100.00;98230.33;1789237;79;21511;-71
2022/04/21 04:18:19;;;;;;;17.57;9.43;;;;;;;3.87;100.00;98230.02;1789965;80;21003;-71
2022/04/21 04:20:46;;;;;;;16.57;9.47;;;;;;;3.88;100.00;98225.83;1789593;80;21070;-71
2022/04/21 04:23:21;;;;;;;16.07;9.83;;;;;;;3.92;100.00;98224.98;1789700;80;21053;-71
2022/04/21 04:25:49;;;;;;;18.57;10.30;;;;;;;3.95;100.00;98223.30;1767669;80;21065;-71
2022/04/21 04:28:16;;;;;;;17.80;9.90;;;;;;;3.98;100.00;98218.92;1783099;80;21039;-71
2022/04/21 04:30:43;;;;;;;19.03;10.20;;;;;;;4.01;100.00;98225.27;1757583;80;21066;-70
2022/04/21 04:33:10;;;;;;;14.93;8.37;;;;;;;4.06;100.00;98221.58;1779891;80;21073;-70
2022/04/21 04:35:38;;;;;;;14.40;8.40;;;;;;;4.11;100.00;98215.72;1726177;81;21101;-71
2022/04/21 04:38:05;;;;;;;14.27;7.90;;;;;;;4.15;100.00;98225.87;1751331;81;21106;-71
2022/04/21 04:40:33;;;;;;;13.30;7.90;;;;;;;4.16;100.00;98231.56;1751741;81;21026;-71
2022/04/21 04:43:01;;;;;;;19.77;8.90;;;;;;;4.18;100.00;98230.06;1751711;81;21035;-70
2022/04/21 04:48:15;;;;;;;16.73;8.33;;;;;;;4.27;100.00;98224.17;1751771;81;21050;-72
2022/04/21 04:50:42;;;;;;;12.67;8.00;;;;;;;4.33;100.00;98228.29;1751672;81;21094;-71
2022/04/21 04:53:11;;;;;;;13.83;8.30;;;;;;;4.37;100.00;98217.59;1751530;82;21591;-71
2022/04/21 04:55:39;;;;;;;13.43;7.90;;;;;;;4.41;100.00;98215.88;1751448;82;21165;-72
2022/04/21 04:58:08;;;;;;;15.07;7.50;;;;;;;4.49;100.00;98211.30;1751459;81;21046;-71
2022/04/21 05:00:35;;;;;;;14.60;7.97;;;;;;;4.60;100.00;98195.85;1751529;82;21015;-70
2022/04/21 05:03:02;;;;;;;12.10;7.13;;;;;;;4.70;100.00;98197.80;1752012;81;21492;-71
2022/04/21 05:05:31;;;;;;;13.57;7.57;;;;;;;4.74;100.00;98198.58;1726676;81;21007;-72
2022/04/21 05:07:59;;;;;;;17.23;7.53;;;;;;;4.78;100.00;98188.38;1751505;81;21081;-71
2022/04/21 05:10:28;;;;;;;15.27;8.23;;;;;;;4.85;100.00;98196.02;1753069;81;20999;-71
2022/04/21 05:12:55;;;;;;;11.03;7.40;;;;;;;4.89;100.00;98187.94;1751272;81;21058;-70
2022/04/21 05:15:25;;;;;;;14.30;7.70;;;;;;;4.94;100.00;98186.89;1750782;81;21070;-71
2022/04/21 05:17:55;;;;;;;12.23;7.53;;;;;;;5.01;100.00;98184.33;1751494;81;21093;-71
2022/04/21 05:20:22;;;;;;;17.33;8.37;;;;;;;5.09;100.00;98178.06;1750459;81;21022;-72
2022/04/21 05:22:52;;;;;;;15.23;7.80;;;;;;;5.14;100.00;98174.33;1751209;81;21102;-72
2022/04/21 05:25:21;;;;;;;17.77;8.30;;;;;;;5.22;100.00;98175.57;1751250;81;21105;-73
2022/04/21 05:27:51;;;;;;;14.83;7.70;;;;;;;5.32;100.00;98164.60;1750706;81;21019;-71
2022/04/21 05:33:08;;;;;;;12.50;7.47;;;;;;;5.53;100.00;98159.86;1750549;81;21059;-71
2022/04/21 05:35:38;;;;;;;15.07;8.30;;;;;;;5.61;100.00;98158.44;1750816;81;21082;-72
2022/04/21 05:38:06;;;;;;;13.80;7.77;;;;;;;5.67;100.00;98167.58;1751233;81;21006;-72
2022/04/21 05:40:36;;;;;;;14.47;8.00;;;;;;;5.75;100.00;98162.63;1750794;82;21740;-71
2022/04/21 05:43:05;;;;;;;14.87;8.37;;;;;;;5.76;100.00;98177.19;1726260;82;21635;-70
2022/04/21 05:45:35;;;;;;;16.10;8.67;;;;;;;5.78;100.00;98181.85;1750144;81;21622;-73
2022/04/21 05:48:05;;;;;;;13.13;7.70;;;;;;;5.82;100.00;98189.84;1750261;82;21046;-71
2022/04/21 05:50:33;;;;;;;14.67;8.67;;;;;;;5.86;100.00;98191.16;1749917;81;21098;-70
2022/04/21 05:53:03;;;;;;;13.20;8.43;;;;;;;5.96;100.00;98190.06;1720790;83;21610;-70
2022/04/21 05:55:35;;;;;;;16.10;8.67;;;;;;;6.03;100.00;98194.48;1661996;86;21645;-72
2022/04/21 05:58:05;;;;;;;16.40;8.80;;;;;;;6.08;100.00;98202.80;1662515;86;21102;-70
2022/04/21 06:00:34;;;;;;;18.23;8.70;;;;;;;6.13;100.00;98212.17;1661482;86;21090;-71
2022/04/21 06:03:02;;;;;;;17.73;8.63;;;;;;;6.25;100.00;98218.20;1663938;86;21078;-72
2022/04/21 06:05:30;;;;;;;15.37;9.47;;;;;;;6.39;100.00;98226.39;1663726;86;21074;-70
2022/04/21 06:07:57;;;;;;;15.10;9.47;;;;;;;6.49;100.00;98234.16;1663714;86;21066;-72
2022/04/21 06:10:25;;;;;;;21.43;12.17;;;;;;;6.55;100.00;98239.62;1663593;85;21121;-74
2022/04/21 06:12:55;;;;;;;17.37;10.93;;;;;;;6.64;100.00;98248.39;1663141;86;21054;-72
2022/04/21 06:15:23;;;;;;;19.13;11.70;;;;;;;6.69;100.00;98262.06;1663230;86;21611;-72
2022/04/21 06:17:52;;;;;;;20.97;11.17;;;;;;;6.72;100.00;98276.98;1663545;86;21062;-71
2022/04/21 06:20:19;;;;;;;14.93;9.20;;;;;;;6.73;100.00;98288.88;1664543;86;21068;-71
2022/04/21 06:22:47;;;;;;;17.53;10.07;;;;;;;6.75;100.00;98300.78;1664035;85;21074;-72
2022/04/21 06:25:16;;;;;;;14.77;9.30;;;;;;;6.72;100.00;98320.78;1663832;86;21121;-72
2022/04/21 06:27:45;;;;;;;16.73;9.33;;;;;;;6.72;100.00;98342.79;1665860;85;21032;-73
2022/04/21 06:30:14;;;;;;;17.60;9.30;;;;;;;6.70;100.00;98352.89;1687918;85;21032;-72
2022/04/21 06:32:43;;;;;;;16.93;9.50;;;;;;;6.68;100.00;98352.25;1687433;85;21072;-71
2022/04/21 06:35:18;;;;;;;16.23;9.23;;;;;;;6.78;100.00;98363.52;1687590;85;21038;-71
2022/04/21 06:37:47;;;;;;;15.90;9.67;;;;;;;6.98;100.00;98359.22;1662320;85;21626;-71
2022/04/21 06:40:16;;;;;;;19.03;10.57;;;;;;;7.13;100.00;98366.41;1687533;84;21070;-72
2022/04/21 06:42:45;;;;;;;20.60;11.20;;;;;;;7.19;100.00;98369.17;1686904;85;21542;-71
2022/04/21 06:48:04;;;;;;;20.03;10.10;;;;;;;7.33;100.00;98379.56;1687469;84;21011;-71
2022/04/21 06:50:37;;;;;;;19.43;10.50;;;;;;;7.38;100.00;98378.97;1687722;85;21622;-71
2022/04/21 06:53:06;;;;;;;15.17;10.17;;;;;;;7.37;100.00;98380.84;1734597;81;21113;-72
2022/04/21 06:55:35;;;;;;;18.47;10.87;;;;;;;7.40;100.00;98387.68;1744242;81;21667;-73
2022/04/21 06:58:04;;;;;;;16.47;9.47;;;;;;;7.35;100.00;98390.96;1744464;82;21497;-73
2022/04/21 07:00:31;;;;;;;19.50;9.90;;;;;;;7.34;100.00;98393.31;1745523;81;21023;-71
2022/04/21 07:02:59;;;;;;;19.13;10.10;;;;;;;7.26;100.00;98409.58;1745169;82;21035;-72
2022/04/21 07:05:29;;;;;;;14.90;8.93;;;;;;;7.26;100.00;98423.02;1744320;82;21078;-72
2022/04/21 07:07:58;;;;;;;18.70;9.10;;;;;;;7.32;100.00;98431.66;1743999;81;21032;-71
2022/04/21 07:10:27;;;;;;;16.17;8.17;;;;;;;7.33;100.00;98456.20;1744241;81;21054;-71
2022/04/21 07:12:56;;;;;;;14.93;7.60;;;;;;;7.42;100.00;98475.75;1744614;81;21555;-71
2022/04/21 07:15:23;;;;;;;15.53;8.27;;;;;;;7.51;100.00;98491.26;1744696;82;21487;-72
2022/04/21 07:17:51;;;;;;;15.43;9.30;;;;;;;7.54;100.00;98514.58;1744926;82;21051;-72
2022/04/21 07:20:19;;;;;;;14.20;8.10;;;;;;;7.61;100.00;98542.88;1744496;81;21043;-71
2022/04/21 07:22:46;;;;;;;9.00;6.27;;;;;;;7.65;100.00;98573.78;1744861;81;20988;-71
2022/04/21 07:25:15;;;;;;;14.00;6.77;;;;;;;7.65;100.00;98622.69;1744269;81;21020;-72
2022/04/21 07:27:44;;;;;;;13.17;7.40;;;;;;;7.70;100.00;98646.70;1743177;81;21125;-71
2022/04/21 07:30:14;;;;;;;12.00;7.80;;;;;;;7.76;100.00;98675.53;1742274;82;21050;-73
2022/04/21 07:32:44;;;;;;;13.33;7.27;;;;;;;7.91;100.00;98688.14;1742750;82;21478;-73
2022/04/21 07:35:13;;;;;;;10.47;7.60;;;;;;;7.97;100.00;98701.69;1749703;81;21022;-71
2022/04/21 07:37:41;;;;;;;12.83;7.30;;;;;;;7.98;100.00;98743.75;1750143;82;20990;-72
2022/04/21 07:40:10;;;;;;;9.93;6.50;;;;;;;8.07;100.00;98774.08;1749955;81;21081;-73
2022/04/21 07:42:38;;;;;;;12.17;7.50;;;;;;;8.17;100.00;98788.63;1750858;82;20986;-72
2022/04/21 07:45:07;;;;;;;14.07;7.60;;;;;;;8.20;100.00;98815.19;1751287;82;20998;-72
2022/04/21 07:47:34;;;;;;;14.10;7.50;;;;;;;8.15;100.00;98888.95;1750808;82;21025;-74
2022/04/21 07:50:03;;;;;;;10.93;6.53;;;;;;;8.21;100.00;98974.37;1750745;80;21092;-73
2022/04/21 07:55:23;;;;;;;12.30;6.90;;;;;;;8.44;100.00;99109.05;1750203;81;21045;-69
2022/04/21 07:57:53;;;;;;;12.50;6.72;;;;;;;8.71;100.00;99198.45;1750002;82;21038;-71
2022/04/21 08:00:23;;;;;;;11.73;7.63;;;;;;;8.91;100.00;99234.70;1750331;82;21009;-72
2022/04/21 08:02:52;;;;;;;11.10;6.73;;;;;;;8.98;100.00;99288.75;1749542;82;21040;-73
2022/04/21 08:05:21;;;;;;;9.87;6.50;;;;;;;9.04;100.00;99322.25;1727973;82;21076;-74
2022/04/21 08:07:48;;;;;;;7.30;5.60;;;;;;;8.99;100.00;99361.88;1748653;81;20986;-70
2022/04/21 08:10:16;;;;;;;12.03;6.43;;;;;;;8.92;100.00;99397.30;1748733;82;21561;-72
2022/04/21 08:12:49;;;;;;;11.43;6.07;;;;;;;8.83;100.00;99444.20;1749309;81;21057;-72
2022/04/21 08:15:26;;;;;;;12.53;6.37;;;;;;;8.74;100.00;99456.34;1749481;81;21123;-69
2022/04/21 08:17:56;;;;;;;16.17;6.53;;;;;;;8.77;100.00;99471.86;1644961;87;21063;-71
2022/04/21 08:20:24;;;;;;;9.47;5.53;;;;;;;8.80;100.00;99475.53;1644174;87;21055;-71
2022/04/21 08:22:54;;;;;;;9.83;6.43;;;;;;;8.86;100.00;99493.22;1643699;87;21059;-73
2022/04/21 08:33:43;;;;;;;9.20;5.93;;;;;;;8.70;100.00;99558.79;1628072;88;21118;-72
2022/04/21 08:36:11;;;;;;;17.30;7.90;;;;;;;8.52;100.00;99575.15;1630426;87;21115;-72
2022/04/21 08:38:40;;;;;;;7.67;5.70;;;;;;;8.44;100.00;99570.27;1630416;88;21102;-72
2022/04/21 08:41:09;;;;;;;12.07;6.67;;;;;;;8.43;100.00;99555.97;1631198;88;21055;-72
2022/04/21 08:43:38;;;;;;;9.63;5.90;;;;;;;8.47;100.00;99552.42;1631056;88;21063;-73
2022/04/21 08:46:09;;;;;;;9.03;5.80;;;;;;;8.48;100.00;99546.00;1631403;88;21098;-72
2022/04/21 08:48:38;;;;;;;10.30;6.20;;;;;;;8.43;100.00;99546.53;1585698;90;21119;-71
2022/04/21 08:51:09;;;;;;;10.00;6.23;;;;;;;8.42;100.00;99551.58;1586651;90;21139;-73
2022/04/21 08:53:36;;;;;;;11.47;6.43;;;;;;;8.44;100.00;99546.02;1585314;90;21103;-71
2022/04/21 08:56:06;;;;;;;9.87;6.27;;;;;;;8.36;100.00;99552.23;1584942;89;21137;-72
2022/04/21 08:58:34;;;;;;;12.43;6.30;;;;;;;8.27;100.00;99554.08;1585333;89;21056;-72
2022/04/21 09:01:04;;;;;;;10.80;6.53;;;;;;;8.22;100.00;99555.60;1585419;90;21040;-72
2022/04/21 09:03:33;;;;;;;10.93;6.43;;;;;;;8.17;100.00;99558.78;1585337;90;21163;-72
2022/04/21 09:06:02;;;;;;;11.53;7.13;;;;;;;8.06;100.00;99538.92;1584168;90;21337;-71
2022/04/21 09:08:34;;;;;;;11.53;6.53;;;;;;;8.01;100.00;99531.85;1561514;90;22003;-72
2022/04/21 09:11:04;;;;;;;11.27;6.87;;;;;;;8.01;100.00;99522.43;1584253;90;21131;-74
2022/04/21 09:13:40;;;;;;;8.63;6.10;;;;;;;8.08;100.00;99505.94;1558898;92;21603;-77
2022/04/21 09:16:09;;;;;;;10.27;5.23;;;;;;;8.22;100.00;99490.96;1600236;89;21583;-73
2022/04/21 09:18:49;;;;;;;8.47;5.40;;;;;;;8.33;100.00;99495.98;1622834;87;21076;-73
2022/04/21 09:21:17;;;;;;;9.90;5.50;;;;;;;8.37;100.00;99498.67;1565484;92;21104;-71
2022/04/21 09:23:47;;;;;;;11.20;5.47;;;;;;;8.39;100.00;99514.16;1564614;90;21154;-72
2022/04/21 09:26:19;;;;;;;9.53;5.23;;;;;;;8.39;100.00;99519.55;1564626;92;21103;-71
2022/04/21 09:28:54;;;;;;;12.43;5.50;;;;;;;8.46;100.00;99532.70;1561919;90;21046;-74
2022/04/21 09:31:21;;;;;;;12.80;6.43;;;;;;;8.61;100.00;99533.39;1578674;89;21079;-71
2022/04/21 09:33:51;;;;;;;9.13;5.20;;;;;;;8.83;100.00;99531.81;1581807;90;21098;-72
2022/04/21 09:36:19;;;;;;;9.27;5.50;;;;;;;9.06;100.00;99535.44;1517764;93;21132;-70
2022/04/21 09:38:59;;;;;;;10.53;5.30;;;;;;;9.21;100.00;99542.84;1566105;90;21091;-72
2022/04/21 09:41:30;;;;;;;13.27;6.13;;;;;;;9.31;100.00;99542.96;1585959;90;21146;-72
2022/04/21 09:46:59;;;;;;;10.07;5.97;;;;;;;9.39;100.00;99559.61;1628033;88;21103;-71
2022/04/21 09:49:43;;;;;;;7.63;5.20;;;;;;;9.41;100.00;99570.23;1589171;89;21116;-72
2022/04/21 09:52:12;;;;;;;8.00;4.83;;;;;;;9.41;100.00;99576.47;1610332;89;21044;-73
2022/04/21 09:57:08;;;;;;;10.23;4.67;;;;;;;9.35;100.00;99587.97;1559116;92;21160;-72
2022/04/21 09:59:36;;;;;;;8.43;4.50;;;;;;;9.31;100.00;99608.20;1559619;92;21145;-72
2022/04/21 10:02:04;;;;;;;8.83;4.50;;;;;;;9.33;100.00;99612.94;1559314;92;21245;-74
2022/04/21 10:04:33;;;;;;;13.47;5.10;;;;;;;9.36;100.00;99617.97;1559258;92;21170;-72
2022/04/21 10:07:01;;;;;;;7.30;4.47;;;;;;;9.44;100.00;99618.47;1559048;92;21101;-72
2022/04/21 10:09:29;;;;;;;9.27;4.50;;;;;;;9.48;100.00;99620.63;1558887;92;21101;-72
2022/04/21 10:11:59;;;;;;;10.03;4.93;;;;;;;9.56;100.00;99631.05;1562919;91;21104;-70
2022/04/21 10:14:27;;;;;;;7.60;4.60;;;;;;;9.63;100.00;99632.04;1596648;90;21092;-72
2022/04/21 10:16:56;;;;;;;8.77;4.70;;;;;;;9.74;100.00;99631.67;1599743;89;21090;-72
2022/04/21 10:19:25;;;;;;;12.73;5.83;;;;;;;9.78;100.00;99631.64;1582883;91;21324;-72
2022/04/21 10:22:00;;;;;;;14.03;5.30;;;;;;;9.76;100.00;99630.98;1595818;88;21081;-72
2022/04/21 10:24:32;;;;;;;12.40;5.90;;;;;;;9.86;100.00;99626.70;1617014;88;21117;-70
2022/04/21 10:26:59;;;;;;;10.67;4.73;;;;;;;10.01;100.00;99630.86;1596280;90;21137;-70
2022/04/21 10:29:28;;;;;;;9.77;4.90;;;;;;;10.08;100.00;99634.02;1585597;89;21140;-73
2022/04/21 10:32:03;;;;;;;6.60;4.20;;;;;;;10.10;100.00;99644.64;1634736;87;21038;-73
2022/04/21 10:34:42;;;;;;;11.00;4.70;;;;;;;10.07;100.00;99654.45;1627688;87;21652;-72
2022/04/21 10:37:21;;;;;;;11.10;5.17;;;;;;;10.02;100.00;99658.19;1644792;87;21084;-72
2022/04/21 10:40:05;;;;;;;20.87;5.37;;;;;;;9.97;100.00;99662.79;1645330;87;21613;-72
2022/04/21 10:43:03;;;;;;;17.60;6.53;;;;;;;9.89;100.00;99662.81;1625364;87;21127;-71
2022/04/21 10:45:31;;;;;;;11.17;5.50;;;;;;;9.99;100.00;99661.27;1645109;86;21612;-72
2022/04/21 10:48:12;;;;;;;16.50;5.30;;;;;;;10.05;100.00;99670.83;1645554;87;21546;-70
2022/04/21 10:50:42;;;;;;;5.40;4.20;;;;;;;10.13;100.00;99676.72;1645339;87;21084;-74
2022/04/21 10:59:08;;;;;;;15.00;5.72;;;;;;;10.33;100.00;99691.16;1757477;82;21038;-70
2022/04/21 11:01:36;;;;;;;8.25;4.45;;;;;;;10.51;100.00;99701.17;1757729;82;21057;-71
2022/04/21 11:04:12;;;;;;;11.50;4.90;;;;;;;10.64;100.00;99720.36;1757479;81;21069;-73
2022/04/21 11:06:43;;;;;;;13.00;4.85;;;;;;;10.72;100.00;99720.80;1757525;80;21112;-71
2022/04/21 11:09:33;;;;;;;6.33;3.83;;;;;;;10.84;100.00;99715.83;1757432;82;21045;-73
2022/04/21 11:12:01;;;;;;;13.88;4.42;;;;;;;11.00;100.00;99715.69;1686632;84;21113;-71
2022/04/21 11:14:29;;;;;;;9.93;4.17;;;;;;;11.09;100.00;99719.17;1687048;85;21123;-71
2022/04/21 11:16:57;;;;;;;8.20;3.90;;;;;;;11.27;100.00;99722.06;1687444;85;21115;-71
2022/04/21 11:19:45;;;;;;;8.85;4.53;;;;;;;11.51;100.00;99730.44;1687040;85;21083;-71
2022/04/21 11:22:15;;;;;;;11.03;3.80;;;;;;;11.62;100.00;99733.23;1681153;85;21160;-72
2022/04/21 11:25:01;;;;;;;8.25;3.70;;;;;;;11.75;100.00;99742.37;1686394;85;21619;-72
2022/04/21 11:27:31;;;;;;;17.52;5.03;;;;;;;11.92;100.00;99752.56;1687143;85;21096;-71
2022/04/21 11:30:07;;;;;;;10.65;3.92;;;;;;;12.13;100.00;99752.33;1694401;84;21617;-74
2022/04/21 11:32:35;;;;;;;16.17;5.95;;;;;;;12.33;100.00;99760.70;1666094;86;21109;-72
2022/04/21 11:35:11;;;;;;;10.53;4.42;;;;;;;12.43;100.00;99757.19;1662376;85;21054;-71
2022/04/21 11:37:58;;;;;;;3.98;2.87;;;;;;;12.24;100.00;99758.61;1661598;85;21098;-72
2022/04/21 11:40:31;;;;;;;5.33;2.90;;;;;;;11.91;100.00;99765.77;1662136;85;21078;-72
2022/04/21 11:43:17;;;;;;;3.75;3.05;;;;;;;11.57;100.00;99774.40;1661859;85;21031;-72
2022/04/21 11:45:59;;;;;;;5.85;3.35;;;;;;;11.33;100.00;99770.03;1661699;85;21626;-71
2022/04/21 11:48:40;;;;;;;7.45;3.77;;;;;;;11.11;100.00;99771.23;1609107;88;21612;-71
2022/04/21 11:51:08;;;;;;;10.40;3.20;;;;;;;11.16;100.00;99760.71;1603740;89;21116;-72
2022/04/21 11:56:12;;;;;;;7.78;2.95;;;;;;;11.28;100.00;99784.62;1516272;95;21101;-72
2022/04/21 12:06:54;;;;;;;8.65;3.37;;;;;;;10.94;100.00;99811.60;1500829;94;21108;-71
2022/04/21 12:09:26;;;;;;;5.75;3.27;;;;;;;10.89;100.00;99819.41;1455855;99;21113;-68
2022/04/21 12:11:56;;;;;;;;;;;;;;;10.82;100.00;99818.78;1444853;99;21136;-70
2022/04/21 12:14:23;;;;;;;;;;;;;;;10.82;100.00;99808.48;1445034;99;20480;-70
2022/04/21 12:16:53;;;;;;;;;;;;;;;10.85;100.00;99809.97;1445790;98;20168;-70
2022/04/21 12:19:33;;;;;;;;;;;;;;;11.02;100.00;99800.73;1445541;99;20508;-71
2022/04/21 12:24:41;;;;;;;;;;;;;;;11.62;100.00;99811.25;1432908;99;20174;-71
2022/04/21 12:27:34;;;;;;;;;;;;;;;11.77;100.00;99805.36;1432801;99;20209;-72
2022/04/21 12:30:04;;;;;;;;;;;;;;;11.95;100.00;99807.73;1402386;99;20192;-71
2022/04/21 12:32:32;;;;;;;;;;;;;;;11.98;100.00;99808.39;1422278;101;20192;-71
2022/04/21 12:35:03;;;;;;;;;;;;;;;11.86;100.00;99808.80;1435284;98;20171;-71
2022/04/21 12:37:32;;;;;;;;;;;;;;;11.82;100.00;99810.72;1435730;99;20125;-70
2022/04/21 12:40:00;;;;;;;;;;;;;;;11.88;100.00;99801.84;1436204;99;20137;-72